sensor_id;sensor_type;location;lat;lon;timestamp;P1;durP1;ratioP1;P2;durP2;ratioP2
10056;SDS011;5068;51.286;7.518;2024-03-23T00:52:44;6.07;;;2.08;;
10056;SDS011;5068;51.286;7.518;2024-03-23T00:54:17;6.35;;;2.03;;
10056;SDS011;5068;51.286;7.518;2024-03-23T00:55:48;5.60;;;1.92;;
10056;SDS011;5068;51.286;7.518;2024-03-23T00:57:19;3.72;;;1.92;;
10056;SDS011;5068;51.286;7.518;2024-03-23T00:58:50;5.32;;;2.13;;
10056;SDS011;5068;51.286;7.518;2024-03-23T01:00:21;4.03;;;1.33;;
10056;SDS011;5068;51.286;7.518;2024-03-23T01:01:52;4.38;;;1.77;;
10056;SDS011;5068;51.286;7.518;2024-03-23T01:03:24;5.50;;;1.60;;
10056;SDS011;5068;51.286;7.518;2024-03-23T01:04:55;5.53;;;1.98;;
10056;SDS011;5068;51.286;7.518;2024-03-23T01:06:26;5.78;;;1.70;;
10056;SDS011;5068;51.286;7.518;2024-03-23T01:07:57;4.82;;;1.45;;
10056;SDS011;5068;51.286;7.518;2024-03-23T01:09:28;6.85;;;2.35;;
10056;SDS011;5068;51.286;7.518;2024-03-23T01:11:00;7.22;;;1.73;;
10056;SDS011;5068;51.286;7.518;2024-03-23T01:12:32;3.85;;;1.20;;
10056;SDS011;5068;51.286;7.518;2024-03-23T01:14:04;5.75;;;1.50;;
10056;SDS011;5068;51.286;7.518;2024-03-23T01:15:35;5.63;;;1.67;;
10056;SDS011;5068;51.286;7.518;2024-03-23T01:17:06;6.53;;;1.75;;
10056;SDS011;5068;51.286;7.518;2024-03-23T01:18:37;6.82;;;1.42;;
10056;SDS011;5068;51.286;7.518;2024-03-23T01:20:08;5.70;;;1.67;;
10056;SDS011;5068;51.286;7.518;2024-03-23T01:21:39;8.35;;;1.80;;
10056;SDS011;5068;51.286;7.518;2024-03-23T01:23:11;5.32;;;1.27;;
10056;SDS011;5068;51.286;7.518;2024-03-23T01:24:42;5.57;;;1.92;;
10056;SDS011;5068;51.286;7.518;2024-03-23T01:26:13;5.07;;;1.23;;
10056;SDS011;5068;51.286;7.518;2024-03-23T01:27:45;8.55;;;1.90;;
10056;SDS011;5068;51.286;7.518;2024-03-23T01:29:16;5.03;;;1.63;;
10056;SDS011;5068;51.286;7.518;2024-03-23T01:30:47;7.00;;;1.55;;
10056;SDS011;5068;51.286;7.518;2024-03-23T01:32:18;6.63;;;2.05;;
10056;SDS011;5068;51.286;7.518;2024-03-23T01:33:50;5.45;;;1.58;;
10056;SDS011;5068;51.286;7.518;2024-03-23T01:35:21;6.30;;;2.13;;
10056;SDS011;5068;51.286;7.518;2024-03-23T01:36:52;4.70;;;1.60;;
10056;SDS011;5068;51.286;7.518;2024-03-23T01:38:23;4.45;;;1.10;;
10056;SDS011;5068;51.286;7.518;2024-03-23T01:39:54;5.15;;;1.45;;
10056;SDS011;5068;51.286;7.518;2024-03-23T01:41:25;2.25;;;0.85;;
10056;SDS011;5068;51.286;7.518;2024-03-23T01:42:56;6.00;;;1.38;;
10056;SDS011;5068;51.286;7.518;2024-03-23T01:44:35;5.72;;;1.30;;
10056;SDS011;5068;51.286;7.518;2024-03-23T01:46:06;3.88;;;1.27;;
10056;SDS011;5068;51.286;7.518;2024-03-23T01:47:38;3.83;;;1.15;;
10056;SDS011;5068;51.286;7.518;2024-03-23T01:49:10;3.15;;;1.10;;
10056;SDS011;5068;51.286;7.518;2024-03-23T01:50:42;5.53;;;1.17;;
10056;SDS011;5068;51.286;7.518;2024-03-23T01:52:13;2.83;;;0.90;;
10056;SDS011;5068;51.286;7.518;2024-03-23T01:53:44;6.32;;;1.35;;
10056;SDS011;5068;51.286;7.518;2024-03-23T01:55:17;2.78;;;1.00;;
10056;SDS011;5068;51.286;7.518;2024-03-23T01:56:48;5.35;;;1.50;;
10056;SDS011;5068;51.286;7.518;2024-03-23T01:58:19;2.05;;;0.70;;
10056;SDS011;5068;51.286;7.518;2024-03-23T01:59:50;3.33;;;0.98;;
10056;SDS011;5068;51.286;7.518;2024-03-23T02:01:29;3.45;;;0.85;;
10056;SDS011;5068;51.286;7.518;2024-03-23T02:03:01;2.65;;;0.80;;
10056;SDS011;5068;51.286;7.518;2024-03-23T02:04:32;2.65;;;1.08;;
10056;SDS011;5068;51.286;7.518;2024-03-23T02:06:03;4.78;;;0.90;;
10056;SDS011;5068;51.286;7.518;2024-03-23T02:07:35;4.00;;;1.15;;
10056;SDS011;5068;51.286;7.518;2024-03-23T02:09:06;2.97;;;0.88;;
10056;SDS011;5068;51.286;7.518;2024-03-23T02:10:38;4.07;;;0.90;;
10056;SDS011;5068;51.286;7.518;2024-03-23T02:12:09;3.50;;;0.82;;
10056;SDS011;5068;51.286;7.518;2024-03-23T02:13:41;4.53;;;1.10;;
10056;SDS011;5068;51.286;7.518;2024-03-23T02:15:12;4.85;;;1.23;;
10056;SDS011;5068;51.286;7.518;2024-03-23T02:16:43;3.33;;;1.10;;
10056;SDS011;5068;51.286;7.518;2024-03-23T02:18:14;4.07;;;1.13;;
10056;SDS011;5068;51.286;7.518;2024-03-23T02:19:45;4.72;;;1.00;;
10056;SDS011;5068;51.286;7.518;2024-03-23T02:21:17;5.55;;;1.20;;
10056;SDS011;5068;51.286;7.518;2024-03-23T02:22:50;4.65;;;1.00;;
10056;SDS011;5068;51.286;7.518;2024-03-23T02:24:25;3.05;;;1.02;;
10056;SDS011;5068;51.286;7.518;2024-03-23T02:25:56;1.45;;;0.82;;
10056;SDS011;5068;51.286;7.518;2024-03-23T02:27:28;4.53;;;1.10;;
10056;SDS011;5068;51.286;7.518;2024-03-23T02:28:59;4.68;;;1.02;;
10056;SDS011;5068;51.286;7.518;2024-03-23T02:30:30;4.45;;;1.00;;
10056;SDS011;5068;51.286;7.518;2024-03-23T02:32:01;3.50;;;1.00;;
10056;SDS011;5068;51.286;7.518;2024-03-23T02:33:32;3.72;;;1.20;;
10056;SDS011;5068;51.286;7.518;2024-03-23T02:35:04;3.33;;;1.10;;
10056;SDS011;5068;51.286;7.518;2024-03-23T02:36:36;3.05;;;1.23;;
10056;SDS011;5068;51.286;7.518;2024-03-23T02:38:07;2.33;;;0.80;;
10056;SDS011;5068;51.286;7.518;2024-03-23T02:39:38;2.88;;;1.13;;
10056;SDS011;5068;51.286;7.518;2024-03-23T02:41:09;5.05;;;1.55;;
10056;SDS011;5068;51.286;7.518;2024-03-23T02:42:40;3.75;;;1.50;;
10056;SDS011;5068;51.286;7.518;2024-03-23T02:44:12;3.58;;;1.35;;
10056;SDS011;5068;51.286;7.518;2024-03-23T02:45:44;4.15;;;1.00;;
10056;SDS011;5068;51.286;7.518;2024-03-23T02:47:15;4.75;;;1.20;;
10056;SDS011;5068;51.286;7.518;2024-03-23T02:48:48;2.75;;;0.75;;
10056;SDS011;5068;51.286;7.518;2024-03-23T02:50:19;3.55;;;1.27;;
10056;SDS011;5068;51.286;7.518;2024-03-23T02:51:51;2.85;;;0.93;;
10056;SDS011;5068;51.286;7.518;2024-03-23T02:53:22;3.95;;;0.73;;
10056;SDS011;5068;51.286;7.518;2024-03-23T02:54:53;2.28;;;0.90;;
10056;SDS011;5068;51.286;7.518;2024-03-23T02:56:24;4.93;;;1.38;;
10056;SDS011;5068;51.286;7.518;2024-03-23T02:57:56;2.30;;;0.93;;
10056;SDS011;5068;51.286;7.518;2024-03-23T02:59:32;2.83;;;0.90;;
10056;SDS011;5068;51.286;7.518;2024-03-23T03:01:03;2.63;;;1.00;;
10056;SDS011;5068;51.286;7.518;2024-03-23T03:02:34;3.83;;;0.95;;
10056;SDS011;5068;51.286;7.518;2024-03-23T03:04:06;2.80;;;1.10;;
10056;SDS011;5068;51.286;7.518;2024-03-23T03:05:37;4.15;;;0.98;;
10056;SDS011;5068;51.286;7.518;2024-03-23T03:07:08;4.00;;;1.05;;
10056;SDS011;5068;51.286;7.518;2024-03-23T03:08:39;3.65;;;1.45;;
10056;SDS011;5068;51.286;7.518;2024-03-23T03:10:10;3.83;;;1.00;;
10056;SDS011;5068;51.286;7.518;2024-03-23T03:11:41;3.03;;;1.20;;
10056;SDS011;5068;51.286;7.518;2024-03-23T03:13:12;2.13;;;1.00;;
10056;SDS011;5068;51.286;7.518;2024-03-23T03:14:43;2.78;;;0.80;;
10056;SDS011;5068;51.286;7.518;2024-03-23T03:16:14;2.38;;;0.98;;
10056;SDS011;5068;51.286;7.518;2024-03-23T03:17:45;3.05;;;1.00;;
10056;SDS011;5068;51.286;7.518;2024-03-23T03:19:16;3.63;;;0.80;;
10056;SDS011;5068;51.286;7.518;2024-03-23T03:20:48;3.35;;;0.88;;
10056;SDS011;5068;51.286;7.518;2024-03-23T03:22:19;1.55;;;1.00;;
10056;SDS011;5068;51.286;7.518;2024-03-23T03:23:50;2.70;;;0.80;;
10056;SDS011;5068;51.286;7.518;2024-03-23T03:25:21;1.90;;;0.65;;
10056;SDS011;5068;51.286;7.518;2024-03-23T03:26:54;2.35;;;0.70;;
10056;SDS011;5068;51.286;7.518;2024-03-23T03:28:25;3.15;;;1.05;;
10056;SDS011;5068;51.286;7.518;2024-03-23T03:29:56;1.80;;;0.70;;
10056;SDS011;5068;51.286;7.518;2024-03-23T03:31:28;2.35;;;0.65;;
10056;SDS011;5068;51.286;7.518;2024-03-23T03:32:59;3.30;;;0.80;;
10056;SDS011;5068;51.286;7.518;2024-03-23T03:34:30;4.90;;;0.90;;
10056;SDS011;5068;51.286;7.518;2024-03-23T03:36:01;3.00;;;0.90;;
10056;SDS011;5068;51.286;7.518;2024-03-23T03:37:32;2.35;;;0.55;;
10056;SDS011;5068;51.286;7.518;2024-03-23T03:39:03;1.80;;;1.00;;
10056;SDS011;5068;51.286;7.518;2024-03-23T03:40:35;1.90;;;0.50;;
10056;SDS011;5068;51.286;7.518;2024-03-23T03:42:06;3.17;;;0.68;;
10056;SDS011;5068;51.286;7.518;2024-03-23T03:43:38;4.30;;;1.13;;
10056;SDS011;5068;51.286;7.518;2024-03-23T03:45:09;1.80;;;0.45;;
10056;SDS011;5068;51.286;7.518;2024-03-23T03:46:40;1.65;;;0.52;;
10056;SDS011;5068;51.286;7.518;2024-03-23T03:48:11;2.08;;;0.60;;
10056;SDS011;5068;51.286;7.518;2024-03-23T03:49:42;3.67;;;0.80;;
10056;SDS011;5068;51.286;7.518;2024-03-23T03:51:13;1.90;;;0.52;;
10056;SDS011;5068;51.286;7.518;2024-03-23T03:52:44;2.10;;;0.68;;
10056;SDS011;5068;51.286;7.518;2024-03-23T03:54:15;3.85;;;1.00;;
10056;SDS011;5068;51.286;7.518;2024-03-23T03:55:46;2.63;;;0.95;;
10056;SDS011;5068;51.286;7.518;2024-03-23T03:57:18;4.07;;;0.60;;
10056;SDS011;5068;51.286;7.518;2024-03-23T03:58:49;2.88;;;0.60;;
10056;SDS011;5068;51.286;7.518;2024-03-23T04:00:20;1.30;;;0.55;;
10056;SDS011;5068;51.286;7.518;2024-03-23T04:01:51;2.47;;;0.85;;
10056;SDS011;5068;51.286;7.518;2024-03-23T04:03:22;3.72;;;0.60;;
10056;SDS011;5068;51.286;7.518;2024-03-23T04:04:53;1.80;;;0.80;;
10056;SDS011;5068;51.286;7.518;2024-03-23T04:06:24;3.38;;;1.02;;
10056;SDS011;5068;51.286;7.518;2024-03-23T04:07:55;3.33;;;0.70;;
10056;SDS011;5068;51.286;7.518;2024-03-23T04:09:27;2.00;;;0.45;;
10056;SDS011;5068;51.286;7.518;2024-03-23T04:10:58;4.95;;;0.50;;
10056;SDS011;5068;51.286;7.518;2024-03-23T04:12:29;2.15;;;0.70;;
10056;SDS011;5068;51.286;7.518;2024-03-23T04:14:00;3.10;;;0.65;;
10056;SDS011;5068;51.286;7.518;2024-03-23T04:15:32;2.15;;;0.40;;
10056;SDS011;5068;51.286;7.518;2024-03-23T04:17:03;1.67;;;0.45;;
10056;SDS011;5068;51.286;7.518;2024-03-23T04:18:35;1.83;;;0.45;;
10056;SDS011;5068;51.286;7.518;2024-03-23T04:20:06;4.15;;;0.98;;
10056;SDS011;5068;51.286;7.518;2024-03-23T04:21:40;3.10;;;0.82;;
10056;SDS011;5068;51.286;7.518;2024-03-23T04:23:11;1.98;;;0.50;;
10056;SDS011;5068;51.286;7.518;2024-03-23T04:24:42;5.10;;;0.77;;
10056;SDS011;5068;51.286;7.518;2024-03-23T04:26:14;3.05;;;0.60;;
10056;SDS011;5068;51.286;7.518;2024-03-23T04:27:46;1.75;;;0.55;;
10056;SDS011;5068;51.286;7.518;2024-03-23T04:29:17;1.65;;;0.50;;
10056;SDS011;5068;51.286;7.518;2024-03-23T04:30:48;1.35;;;0.63;;
10056;SDS011;5068;51.286;7.518;2024-03-23T04:32:19;2.30;;;0.50;;
10056;SDS011;5068;51.286;7.518;2024-03-23T04:33:50;2.88;;;0.45;;
10056;SDS011;5068;51.286;7.518;2024-03-23T04:35:21;4.20;;;0.60;;
10056;SDS011;5068;51.286;7.518;2024-03-23T04:36:55;2.30;;;0.70;;
10056;SDS011;5068;51.286;7.518;2024-03-23T04:38:26;2.47;;;0.80;;
10056;SDS011;5068;51.286;7.518;2024-03-23T04:39:57;2.70;;;0.60;;
10056;SDS011;5068;51.286;7.518;2024-03-23T04:41:29;2.80;;;0.95;;
10056;SDS011;5068;51.286;7.518;2024-03-23T04:43:00;2.90;;;0.70;;
10056;SDS011;5068;51.286;7.518;2024-03-23T04:44:31;2.25;;;0.60;;
10056;SDS011;5068;51.286;7.518;2024-03-23T04:46:02;2.80;;;0.77;;
10056;SDS011;5068;51.286;7.518;2024-03-23T04:47:33;2.65;;;0.60;;
10056;SDS011;5068;51.286;7.518;2024-03-23T04:49:07;4.15;;;0.70;;
10056;SDS011;5068;51.286;7.518;2024-03-23T04:50:38;2.85;;;0.57;;
10056;SDS011;5068;51.286;7.518;2024-03-23T04:52:09;2.75;;;0.68;;
10056;SDS011;5068;51.286;7.518;2024-03-23T04:53:40;3.38;;;0.70;;
10056;SDS011;5068;51.286;7.518;2024-03-23T04:55:11;3.28;;;0.70;;
10056;SDS011;5068;51.286;7.518;2024-03-23T04:56:44;4.65;;;0.65;;
10056;SDS011;5068;51.286;7.518;2024-03-23T04:58:16;2.35;;;0.55;;
10056;SDS011;5068;51.286;7.518;2024-03-23T04:59:47;3.42;;;0.77;;
10056;SDS011;5068;51.286;7.518;2024-03-23T05:01:18;3.55;;;0.75;;
10056;SDS011;5068;51.286;7.518;2024-03-23T05:02:49;7.60;;;1.23;;
10056;SDS011;5068;51.286;7.518;2024-03-23T05:04:21;3.50;;;0.70;;
10056;SDS011;5068;51.286;7.518;2024-03-23T05:05:52;4.03;;;0.70;;
10056;SDS011;5068;51.286;7.518;2024-03-23T05:07:23;4.95;;;0.63;;
10056;SDS011;5068;51.286;7.518;2024-03-23T05:08:54;4.38;;;0.82;;
10056;SDS011;5068;51.286;7.518;2024-03-23T05:10:25;2.85;;;0.60;;
10056;SDS011;5068;51.286;7.518;2024-03-23T05:11:56;3.70;;;0.80;;
10056;SDS011;5068;51.286;7.518;2024-03-23T05:13:27;2.08;;;0.70;;
10056;SDS011;5068;51.286;7.518;2024-03-23T05:14:58;4.30;;;0.98;;
10056;SDS011;5068;51.286;7.518;2024-03-23T05:16:29;3.50;;;0.82;;
10056;SDS011;5068;51.286;7.518;2024-03-23T05:18:01;2.88;;;0.75;;
10056;SDS011;5068;51.286;7.518;2024-03-23T05:19:32;3.10;;;0.57;;
10056;SDS011;5068;51.286;7.518;2024-03-23T05:21:03;2.88;;;0.70;;
10056;SDS011;5068;51.286;7.518;2024-03-23T05:22:35;2.80;;;0.68;;
10056;SDS011;5068;51.286;7.518;2024-03-23T05:24:06;3.35;;;0.50;;
10056;SDS011;5068;51.286;7.518;2024-03-23T05:25:38;2.35;;;0.73;;
10056;SDS011;5068;51.286;7.518;2024-03-23T05:27:09;6.03;;;1.00;;
10056;SDS011;5068;51.286;7.518;2024-03-23T05:28:40;3.38;;;0.70;;
10056;SDS011;5068;51.286;7.518;2024-03-23T05:30:11;4.82;;;0.80;;
10056;SDS011;5068;51.286;7.518;2024-03-23T05:31:42;4.55;;;1.02;;
10056;SDS011;5068;51.286;7.518;2024-03-23T05:33:14;3.08;;;1.15;;
10056;SDS011;5068;51.286;7.518;2024-03-23T05:34:45;3.13;;;0.60;;
10056;SDS011;5068;51.286;7.518;2024-03-23T05:36:16;3.80;;;0.80;;
10056;SDS011;5068;51.286;7.518;2024-03-23T05:37:48;5.88;;;1.17;;
10056;SDS011;5068;51.286;7.518;2024-03-23T05:39:19;4.35;;;0.73;;
10056;SDS011;5068;51.286;7.518;2024-03-23T05:40:53;3.08;;;0.70;;
10056;SDS011;5068;51.286;7.518;2024-03-23T05:42:25;3.85;;;1.10;;
10056;SDS011;5068;51.286;7.518;2024-03-23T05:43:57;3.45;;;0.85;;
10056;SDS011;5068;51.286;7.518;2024-03-23T05:45:28;3.30;;;1.00;;
10056;SDS011;5068;51.286;7.518;2024-03-23T05:46:59;2.45;;;1.23;;
10056;SDS011;5068;51.286;7.518;2024-03-23T05:48:30;2.33;;;0.85;;
10056;SDS011;5068;51.286;7.518;2024-03-23T05:50:01;2.00;;;0.70;;
10056;SDS011;5068;51.286;7.518;2024-03-23T05:51:33;5.82;;;1.23;;
10056;SDS011;5068;51.286;7.518;2024-03-23T05:53:04;4.43;;;1.20;;
10056;SDS011;5068;51.286;7.518;2024-03-23T05:54:36;5.88;;;1.20;;
10056;SDS011;5068;51.286;7.518;2024-03-23T05:56:07;4.07;;;1.27;;
10056;SDS011;5068;51.286;7.518;2024-03-23T05:57:39;3.30;;;0.90;;
10056;SDS011;5068;51.286;7.518;2024-03-23T05:59:10;2.85;;;0.90;;
10056;SDS011;5068;51.286;7.518;2024-03-23T06:00:42;3.72;;;1.30;;
10056;SDS011;5068;51.286;7.518;2024-03-23T06:02:14;4.45;;;1.00;;
10056;SDS011;5068;51.286;7.518;2024-03-23T06:03:45;4.22;;;1.00;;
10056;SDS011;5068;51.286;7.518;2024-03-23T06:05:16;6.95;;;1.75;;
10056;SDS011;5068;51.286;7.518;2024-03-23T06:06:47;5.88;;;1.50;;
10056;SDS011;5068;51.286;7.518;2024-03-23T06:08:19;5.03;;;1.75;;
10056;SDS011;5068;51.286;7.518;2024-03-23T06:09:50;5.40;;;1.40;;
10056;SDS011;5068;51.286;7.518;2024-03-23T06:11:21;4.72;;;1.27;;
10056;SDS011;5068;51.286;7.518;2024-03-23T06:12:52;5.13;;;1.55;;
10056;SDS011;5068;51.286;7.518;2024-03-23T06:14:23;5.97;;;1.40;;
10056;SDS011;5068;51.286;7.518;2024-03-23T06:15:54;5.10;;;1.52;;
10056;SDS011;5068;51.286;7.518;2024-03-23T06:17:26;5.43;;;1.45;;
10056;SDS011;5068;51.286;7.518;2024-03-23T06:18:57;5.47;;;1.65;;
10056;SDS011;5068;51.286;7.518;2024-03-23T06:20:29;5.30;;;1.60;;
10056;SDS011;5068;51.286;7.518;2024-03-23T06:22:00;3.90;;;1.40;;
10056;SDS011;5068;51.286;7.518;2024-03-23T06:23:31;4.43;;;1.45;;
10056;SDS011;5068;51.286;7.518;2024-03-23T06:25:02;7.82;;;2.28;;
10056;SDS011;5068;51.286;7.518;2024-03-23T06:26:33;2.42;;;1.23;;
10056;SDS011;5068;51.286;7.518;2024-03-23T06:28:05;3.35;;;1.27;;
10056;SDS011;5068;51.286;7.518;2024-03-23T06:29:36;3.65;;;1.58;;
10056;SDS011;5068;51.286;7.518;2024-03-23T06:31:10;2.05;;;1.20;;
10056;SDS011;5068;51.286;7.518;2024-03-23T06:32:42;2.75;;;1.20;;
10056;SDS011;5068;51.286;7.518;2024-03-23T06:34:13;3.08;;;1.40;;
10056;SDS011;5068;51.286;7.518;2024-03-23T06:35:49;3.53;;;1.50;;
10056;SDS011;5068;51.286;7.518;2024-03-23T06:37:22;2.60;;;1.02;;
10056;SDS011;5068;51.286;7.518;2024-03-23T06:38:53;1.85;;;1.02;;
10056;SDS011;5068;51.286;7.518;2024-03-23T06:40:24;3.15;;;1.25;;
10056;SDS011;5068;51.286;7.518;2024-03-23T06:41:55;2.50;;;1.52;;
10056;SDS011;5068;51.286;7.518;2024-03-23T06:43:27;3.45;;;1.60;;
10056;SDS011;5068;51.286;7.518;2024-03-23T06:44:58;2.05;;;1.10;;
10056;SDS011;5068;51.286;7.518;2024-03-23T06:46:29;3.05;;;1.25;;
10056;SDS011;5068;51.286;7.518;2024-03-23T06:48:00;2.42;;;1.05;;
10056;SDS011;5068;51.286;7.518;2024-03-23T06:49:31;3.08;;;1.60;;
10056;SDS011;5068;51.286;7.518;2024-03-23T06:51:02;1.92;;;0.90;;
10056;SDS011;5068;51.286;7.518;2024-03-23T06:52:34;3.13;;;1.40;;
10056;SDS011;5068;51.286;7.518;2024-03-23T06:54:05;2.42;;;1.02;;
10056;SDS011;5068;51.286;7.518;2024-03-23T06:55:36;3.67;;;1.50;;
10056;SDS011;5068;51.286;7.518;2024-03-23T06:57:07;4.72;;;1.50;;
10056;SDS011;5068;51.286;7.518;2024-03-23T06:58:38;2.08;;;1.20;;
10056;SDS011;5068;51.286;7.518;2024-03-23T07:00:09;2.58;;;1.00;;
10056;SDS011;5068;51.286;7.518;2024-03-23T07:01:41;2.45;;;1.30;;
10056;SDS011;5068;51.286;7.518;2024-03-23T07:03:13;3.38;;;1.55;;
10056;SDS011;5068;51.286;7.518;2024-03-23T07:04:44;3.28;;;1.45;;
10056;SDS011;5068;51.286;7.518;2024-03-23T07:06:15;4.05;;;1.20;;
10056;SDS011;5068;51.286;7.518;2024-03-23T07:07:46;3.28;;;1.20;;
10056;SDS011;5068;51.286;7.518;2024-03-23T07:09:18;4.15;;;1.30;;
10056;SDS011;5068;51.286;7.518;2024-03-23T07:10:50;3.47;;;1.10;;
10056;SDS011;5068;51.286;7.518;2024-03-23T07:12:21;2.33;;;1.30;;
10056;SDS011;5068;51.286;7.518;2024-03-23T07:13:52;2.55;;;1.20;;
10056;SDS011;5068;51.286;7.518;2024-03-23T07:15:27;1.75;;;1.02;;
10056;SDS011;5068;51.286;7.518;2024-03-23T07:16:58;2.50;;;1.38;;
10056;SDS011;5068;51.286;7.518;2024-03-23T07:18:29;2.70;;;1.60;;
10056;SDS011;5068;51.286;7.518;2024-03-23T07:20:03;4.55;;;1.20;;
10056;SDS011;5068;51.286;7.518;2024-03-23T07:21:34;2.47;;;1.35;;
10056;SDS011;5068;51.286;7.518;2024-03-23T07:23:05;4.28;;;1.50;;
10056;SDS011;5068;51.286;7.518;2024-03-23T07:24:37;3.15;;;1.50;;
10056;SDS011;5068;51.286;7.518;2024-03-23T07:26:11;2.67;;;1.42;;
10056;SDS011;5068;51.286;7.518;2024-03-23T07:27:43;3.28;;;1.50;;
10056;SDS011;5068;51.286;7.518;2024-03-23T07:29:14;4.05;;;1.60;;
10056;SDS011;5068;51.286;7.518;2024-03-23T07:30:45;3.63;;;1.67;;
10056;SDS011;5068;51.286;7.518;2024-03-23T07:32:16;3.65;;;1.90;;
10056;SDS011;5068;51.286;7.518;2024-03-23T07:33:48;3.33;;;2.17;;
10056;SDS011;5068;51.286;7.518;2024-03-23T07:35:19;4.25;;;1.77;;
10056;SDS011;5068;51.286;7.518;2024-03-23T07:36:50;5.07;;;2.10;;
10056;SDS011;5068;51.286;7.518;2024-03-23T07:38:21;4.30;;;2.03;;
10056;SDS011;5068;51.286;7.518;2024-03-23T07:39:52;4.50;;;1.90;;
10056;SDS011;5068;51.286;7.518;2024-03-23T07:41:23;4.55;;;2.03;;
10056;SDS011;5068;51.286;7.518;2024-03-23T07:42:54;4.10;;;2.00;;
10056;SDS011;5068;51.286;7.518;2024-03-23T07:44:26;7.97;;;2.78;;
10056;SDS011;5068;51.286;7.518;2024-03-23T07:45:57;8.20;;;3.05;;
10056;SDS011;5068;51.286;7.518;2024-03-23T07:47:28;8.32;;;3.75;;
10056;SDS011;5068;51.286;7.518;2024-03-23T07:48:59;8.18;;;2.83;;
10056;SDS011;5068;51.286;7.518;2024-03-23T07:50:30;5.05;;;2.40;;
10056;SDS011;5068;51.286;7.518;2024-03-23T07:52:02;7.15;;;2.70;;
10056;SDS011;5068;51.286;7.518;2024-03-23T07:53:33;6.10;;;2.60;;
10056;SDS011;5068;51.286;7.518;2024-03-23T07:55:06;8.25;;;2.60;;
10056;SDS011;5068;51.286;7.518;2024-03-23T07:56:37;5.25;;;3.10;;
10056;SDS011;5068;51.286;7.518;2024-03-23T07:58:08;9.10;;;2.97;;
10056;SDS011;5068;51.286;7.518;2024-03-23T07:59:40;6.78;;;2.58;;
10056;SDS011;5068;51.286;7.518;2024-03-23T08:01:12;5.28;;;2.42;;
10056;SDS011;5068;51.286;7.518;2024-03-23T08:02:45;5.45;;;2.40;;
10056;SDS011;5068;51.286;7.518;2024-03-23T08:04:16;4.10;;;2.35;;
10056;SDS011;5068;51.286;7.518;2024-03-23T08:05:47;4.82;;;2.25;;
10056;SDS011;5068;51.286;7.518;2024-03-23T08:07:18;8.73;;;2.80;;
10056;SDS011;5068;51.286;7.518;2024-03-23T08:08:54;6.47;;;2.90;;
10056;SDS011;5068;51.286;7.518;2024-03-23T08:10:32;5.00;;;3.20;;
10056;SDS011;5068;51.286;7.518;2024-03-23T08:12:03;5.65;;;2.63;;
10056;SDS011;5068;51.286;7.518;2024-03-23T08:13:35;7.20;;;3.20;;
10056;SDS011;5068;51.286;7.518;2024-03-23T08:15:09;7.22;;;2.42;;
10056;SDS011;5068;51.286;7.518;2024-03-23T08:16:40;9.30;;;2.65;;
10056;SDS011;5068;51.286;7.518;2024-03-23T08:18:12;6.65;;;3.20;;
10056;SDS011;5068;51.286;7.518;2024-03-23T08:19:45;6.40;;;2.67;;
10056;SDS011;5068;51.286;7.518;2024-03-23T08:21:17;7.00;;;2.53;;
10056;SDS011;5068;51.286;7.518;2024-03-23T08:22:49;6.97;;;2.67;;
10056;SDS011;5068;51.286;7.518;2024-03-23T08:24:20;7.10;;;2.53;;
10056;SDS011;5068;51.286;7.518;2024-03-23T08:25:52;6.20;;;2.58;;
10056;SDS011;5068;51.286;7.518;2024-03-23T08:27:32;6.13;;;2.80;;
10056;SDS011;5068;51.286;7.518;2024-03-23T08:29:03;5.53;;;2.70;;
10056;SDS011;5068;51.286;7.518;2024-03-23T08:30:35;9.35;;;2.50;;
10056;SDS011;5068;51.286;7.518;2024-03-23T08:32:06;4.28;;;2.33;;
10056;SDS011;5068;51.286;7.518;2024-03-23T08:33:38;5.53;;;2.42;;
10056;SDS011;5068;51.286;7.518;2024-03-23T08:35:10;6.13;;;2.78;;
10056;SDS011;5068;51.286;7.518;2024-03-23T08:36:41;6.07;;;2.45;;
10056;SDS011;5068;51.286;7.518;2024-03-23T08:38:12;6.20;;;2.10;;
10056;SDS011;5068;51.286;7.518;2024-03-23T08:39:43;5.85;;;2.50;;
10056;SDS011;5068;51.286;7.518;2024-03-23T08:41:14;7.25;;;2.53;;
10056;SDS011;5068;51.286;7.518;2024-03-23T08:42:45;6.93;;;2.63;;
10056;SDS011;5068;51.286;7.518;2024-03-23T08:44:17;4.45;;;2.38;;
10056;SDS011;5068;51.286;7.518;2024-03-23T08:45:48;5.82;;;2.28;;
10056;SDS011;5068;51.286;7.518;2024-03-23T08:47:20;6.20;;;2.63;;
10056;SDS011;5068;51.286;7.518;2024-03-23T08:48:56;3.08;;;1.57;;
10056;SDS011;5068;51.286;7.518;2024-03-23T08:50:33;4.03;;;1.57;;
10056;SDS011;5068;51.286;7.518;2024-03-23T08:52:04;5.55;;;2.42;;
10056;SDS011;5068;51.286;7.518;2024-03-23T08:53:35;6.85;;;2.47;;
10056;SDS011;5068;51.286;7.518;2024-03-23T08:55:08;4.88;;;2.40;;
10056;SDS011;5068;51.286;7.518;2024-03-23T08:56:40;4.75;;;2.30;;
10056;SDS011;5068;51.286;7.518;2024-03-23T08:58:11;5.85;;;2.35;;
10056;SDS011;5068;51.286;7.518;2024-03-23T08:59:44;7.95;;;2.10;;
10056;SDS011;5068;51.286;7.518;2024-03-23T09:01:15;8.35;;;2.38;;
10056;SDS011;5068;51.286;7.518;2024-03-23T09:02:47;5.78;;;2.65;;
10056;SDS011;5068;51.286;7.518;2024-03-23T09:04:18;4.70;;;2.80;;
10056;SDS011;5068;51.286;7.518;2024-03-23T09:05:50;7.03;;;2.08;;
10056;SDS011;5068;51.286;7.518;2024-03-23T09:07:22;5.80;;;2.25;;
10056;SDS011;5068;51.286;7.518;2024-03-23T09:08:53;5.15;;;1.98;;
10056;SDS011;5068;51.286;7.518;2024-03-23T09:10:24;4.43;;;1.58;;
10056;SDS011;5068;51.286;7.518;2024-03-23T09:11:55;4.97;;;2.30;;
10056;SDS011;5068;51.286;7.518;2024-03-23T09:13:26;4.57;;;2.20;;
10056;SDS011;5068;51.286;7.518;2024-03-23T09:14:57;5.97;;;2.45;;
10056;SDS011;5068;51.286;7.518;2024-03-23T09:16:29;6.35;;;2.13;;
10056;SDS011;5068;51.286;7.518;2024-03-23T09:18:00;8.68;;;2.72;;
10056;SDS011;5068;51.286;7.518;2024-03-23T09:19:31;5.93;;;2.22;;
10056;SDS011;5068;51.286;7.518;2024-03-23T09:21:02;6.72;;;2.75;;
10056;SDS011;5068;51.286;7.518;2024-03-23T09:22:35;5.85;;;2.03;;
10056;SDS011;5068;51.286;7.518;2024-03-23T09:24:06;4.82;;;1.88;;
10056;SDS011;5068;51.286;7.518;2024-03-23T09:25:37;4.55;;;1.95;;
10056;SDS011;5068;51.286;7.518;2024-03-23T09:27:09;6.43;;;2.40;;
10056;SDS011;5068;51.286;7.518;2024-03-23T09:28:40;5.50;;;2.10;;
10056;SDS011;5068;51.286;7.518;2024-03-23T09:30:11;7.10;;;2.63;;
10056;SDS011;5068;51.286;7.518;2024-03-23T09:31:44;3.70;;;2.03;;
10056;SDS011;5068;51.286;7.518;2024-03-23T09:33:15;4.45;;;2.20;;
10056;SDS011;5068;51.286;7.518;2024-03-23T09:34:46;6.93;;;2.33;;
10056;SDS011;5068;51.286;7.518;2024-03-23T09:36:17;4.68;;;1.20;;
10056;SDS011;5068;51.286;7.518;2024-03-23T09:37:48;2.28;;;0.88;;
10056;SDS011;5068;51.286;7.518;2024-03-23T09:39:19;2.53;;;0.88;;
10056;SDS011;5068;51.286;7.518;2024-03-23T09:40:52;1.80;;;0.50;;
10056;SDS011;5068;51.286;7.518;2024-03-23T09:42:24;1.50;;;0.40;;
10056;SDS011;5068;51.286;7.518;2024-03-23T09:43:55;1.77;;;0.43;;
10056;SDS011;5068;51.286;7.518;2024-03-23T09:45:26;0.80;;;0.30;;
10056;SDS011;5068;51.286;7.518;2024-03-23T09:46:59;0.98;;;0.30;;
10056;SDS011;5068;51.286;7.518;2024-03-23T09:48:30;1.40;;;0.50;;
10056;SDS011;5068;51.286;7.518;2024-03-23T09:50:02;0.75;;;0.25;;
10056;SDS011;5068;51.286;7.518;2024-03-23T09:51:36;1.08;;;0.20;;
10056;SDS011;5068;51.286;7.518;2024-03-23T09:53:08;0.45;;;0.10;;
10056;SDS011;5068;51.286;7.518;2024-03-23T09:54:44;0.60;;;0.20;;
10056;SDS011;5068;51.286;7.518;2024-03-23T09:56:15;5.57;;;2.40;;
10056;SDS011;5068;51.286;7.518;2024-03-23T09:57:47;3.30;;;1.65;;
10056;SDS011;5068;51.286;7.518;2024-03-23T09:59:18;2.35;;;0.75;;
10056;SDS011;5068;51.286;7.518;2024-03-23T10:00:49;18.80;;;10.02;;
10056;SDS011;5068;51.286;7.518;2024-03-23T10:02:21;16.77;;;7.93;;
10056;SDS011;5068;51.286;7.518;2024-03-23T10:03:52;5.75;;;2.70;;
10056;SDS011;5068;51.286;7.518;2024-03-23T10:05:23;2.58;;;1.13;;
10056;SDS011;5068;51.286;7.518;2024-03-23T10:06:54;2.10;;;0.73;;
10056;SDS011;5068;51.286;7.518;2024-03-23T10:08:45;1.73;;;0.50;;
10056;SDS011;5068;51.286;7.518;2024-03-23T10:10:16;5.38;;;2.75;;
10056;SDS011;5068;51.286;7.518;2024-03-23T10:11:48;1.90;;;0.43;;